sensor_id;sensor_type;location;lat;lon;timestamp;pressure;altitude;pressure_sealevel;temperature;humidity
45523;BME280;31254;51.680;5.394;2023-03-21T00:01:36;101710.16;;;10.41;90.22
45523;BME280;31254;51.680;5.394;2023-03-21T00:04:03;101697.97;;;10.46;90.04
45523;BME280;31254;51.680;5.394;2023-03-21T00:06:30;101621.84;;;9.99;90.06
45523;BME280;31254;51.680;5.394;2023-03-21T00:08:57;101677.25;;;10.32;90.07
45523;BME280;31254;51.680;5.394;2023-03-21T00:11:24;101692.78;;;10.42;89.67
45523;BME280;31254;51.680;5.394;2023-03-21T00:13:56;101638.28;;;10.09;90.08
45523;BME280;31254;51.680;5.394;2023-03-21T00:16:28;101666.63;;;10.29;90.14
45523;BME280;31254;51.680;5.394;2023-03-21T00:19:05;101679.13;;;10.42;89.96
45523;BME280;31254;51.680;5.394;2023-03-21T00:21:33;101676.06;;;10.36;90.13
45523;BME280;31254;51.680;5.394;2023-03-21T00:24:21;101617.75;;;10.04;89.84
45523;BME280;31254;51.680;5.394;2023-03-21T00:26:49;101607.47;;;9.97;90.11
45523;BME280;31254;51.680;5.394;2023-03-21T00:29:18;101683.13;;;10.38;90.76
45523;BME280;31254;51.680;5.394;2023-03-21T00:31:48;101677.56;;;10.40;90.61
45523;BME280;31254;51.680;5.394;2023-03-21T00:34:15;101681.13;;;10.40;90.55
45523;BME280;31254;51.680;5.394;2023-03-21T00:36:57;101663.41;;;10.35;90.54
45523;BME280;31254;51.680;5.394;2023-03-21T00:39:23;101676.66;;;10.39;91.14
45523;BME280;31254;51.680;5.394;2023-03-21T00:41:52;101667.63;;;10.39;91.01
45523;BME280;31254;51.680;5.394;2023-03-21T00:44:22;101588.78;;;9.92;91.24
45523;BME280;31254;51.680;5.394;2023-03-21T00:46:51;101598.03;;;10.01;91.13
45523;BME280;31254;51.680;5.394;2023-03-21T00:49:32;101650.91;;;10.32;91.43
45523;BME280;31254;51.680;5.394;2023-03-21T00:52:00;101551.91;;;9.77;91.40
45523;BME280;31254;51.680;5.394;2023-03-21T00:54:41;101653.25;;;10.37;91.79
45523;BME280;31254;51.680;5.394;2023-03-21T00:57:07;101602.97;;;10.07;91.84
45523;BME280;31254;51.680;5.394;2023-03-21T00:59:34;101643.47;;;10.34;91.63
45523;BME280;31254;51.680;5.394;2023-03-21T01:02:03;101592.44;;;10.02;91.59
45523;BME280;31254;51.680;5.394;2023-03-21T01:04:33;101643.34;;;10.36;91.92
45523;BME280;31254;51.680;5.394;2023-03-21T01:06:59;101643.34;;;10.36;92.08
45523;BME280;31254;51.680;5.394;2023-03-21T01:09:26;101633.41;;;10.35;92.16
45523;BME280;31254;51.680;5.394;2023-03-21T01:11:53;101629.94;;;10.33;92.05
45523;BME280;31254;51.680;5.394;2023-03-21T01:14:21;101629.81;;;10.34;92.37
45523;BME280;31254;51.680;5.394;2023-03-21T01:16:52;101526.28;;;9.68;92.50
45523;BME280;31254;51.680;5.394;2023-03-21T01:19:22;101564.00;;;9.95;92.68
45523;BME280;31254;51.680;5.394;2023-03-21T01:22:11;101621.38;;;10.26;92.52
45523;BME280;31254;51.680;5.394;2023-03-21T01:24:38;101571.44;;;9.93;92.69
45523;BME280;31254;51.680;5.394;2023-03-21T01:27:18;101628.84;;;10.24;92.80
45523;BME280;31254;51.680;5.394;2023-03-21T01:29:47;101591.09;;;10.08;92.71
45523;BME280;31254;51.680;5.394;2023-03-21T01:32:14;101558.44;;;9.85;92.77
45523;BME280;31254;51.680;5.394;2023-03-21T01:34:40;101540.25;;;9.75;92.85
45523;BME280;31254;51.680;5.394;2023-03-21T01:37:09;101540.59;;;9.81;92.98
45523;BME280;31254;51.680;5.394;2023-03-21T01:39:38;101540.84;;;9.78;93.11
45523;BME280;31254;51.680;5.394;2023-03-21T01:42:05;101583.88;;;10.07;93.00
45523;BME280;31254;51.680;5.394;2023-03-21T01:44:54;101598.50;;;10.17;93.41
45523;BME280;31254;51.680;5.394;2023-03-21T01:47:23;101588.84;;;10.13;93.53
45523;BME280;31254;51.680;5.394;2023-03-21T01:49:56;101582.00;;;10.19;93.60
45523;BME280;31254;51.680;5.394;2023-03-21T01:52:28;101535.53;;;9.88;93.53
45523;BME280;31254;51.680;5.394;2023-03-21T01:55:07;101599.22;;;10.19;93.17
45523;BME280;31254;51.680;5.394;2023-03-21T01:57:41;101505.22;;;9.70;93.26
45523;BME280;31254;51.680;5.394;2023-03-21T02:00:29;101567.41;;;10.09;93.69
45523;BME280;31254;51.680;5.394;2023-03-21T02:02:59;101589.31;;;10.18;93.47
45523;BME280;31254;51.680;5.394;2023-03-21T02:08:23;101531.91;;;9.87;93.54
45523;BME280;31254;51.680;5.394;2023-03-21T02:11:05;101566.56;;;10.08;93.66
45523;BME280;31254;51.680;5.394;2023-03-21T02:13:32;101493.47;;;9.69;93.64
45523;BME280;31254;51.680;5.394;2023-03-21T02:16:11;101502.88;;;9.77;93.39
45523;BME280;31254;51.680;5.394;2023-03-21T02:40:34;101482.38;;;9.82;93.74
45523;BME280;31254;51.680;5.394;2023-03-21T02:45:55;101482.31;;;9.73;93.51
45523;BME280;31254;51.680;5.394;2023-03-21T02:49:06;101538.78;;;10.14;93.77
45523;BME280;31254;51.680;5.394;2023-03-21T02:51:36;101532.44;;;10.14;93.75
45523;BME280;31254;51.680;5.394;2023-03-21T02:54:08;101480.91;;;9.78;93.63
45523;BME280;31254;51.680;5.394;2023-03-21T02:57:01;101459.91;;;9.69;93.49
45523;BME280;31254;51.680;5.394;2023-03-21T02:59:30;101531.56;;;10.13;93.95
45523;BME280;31254;51.680;5.394;2023-03-21T03:02:05;101533.31;;;10.14;93.59
45523;BME280;31254;51.680;5.394;2023-03-21T03:04:32;101535.03;;;10.15;93.63
45523;BME280;31254;51.680;5.394;2023-03-21T03:12:48;101507.69;;;10.05;93.58
45523;BME280;31254;51.680;5.394;2023-03-21T03:19:07;101501.03;;;9.98;93.56
45523;BME280;31254;51.680;5.394;2023-03-21T03:23:58;101518.06;;;10.12;93.52
45523;BME280;31254;51.680;5.394;2023-03-21T03:28:57;101458.25;;;9.78;93.32
45523;BME280;31254;51.680;5.394;2023-03-21T03:31:28;101511.63;;;10.13;93.73
45523;BME280;31254;51.680;5.394;2023-03-21T03:34:02;101498.66;;;10.05;93.44
45523;BME280;31254;51.680;5.394;2023-03-21T03:36:37;101320.88;;;9.06;93.46
45523;BME280;31254;51.680;5.394;2023-03-21T03:39:12;101455.00;;;9.84;93.68
45523;BME280;31254;51.680;5.394;2023-03-21T03:41:44;101499.72;;;10.14;93.37
45523;BME280;31254;51.680;5.394;2023-03-21T03:44:34;101417.81;;;9.62;93.53
45523;BME280;31254;51.680;5.394;2023-03-21T03:47:17;101473.78;;;9.98;93.42
45523;BME280;31254;51.680;5.394;2023-03-21T03:52:36;101422.50;;;9.71;93.33
45523;BME280;31254;51.680;5.394;2023-03-21T03:55:15;101502.56;;;10.12;93.58
45523;BME280;31254;51.680;5.394;2023-03-21T03:57:46;101442.63;;;9.80;93.24
45523;BME280;31254;51.680;5.394;2023-03-21T04:00:16;101494.53;;;10.11;93.28
45523;BME280;31254;51.680;5.394;2023-03-21T04:02:44;101469.44;;;9.96;93.52
45523;BME280;31254;51.680;5.394;2023-03-21T04:05:14;101491.66;;;10.12;93.33
45523;BME280;31254;51.680;5.394;2023-03-21T04:07:41;101494.53;;;10.11;93.61
45523;BME280;31254;51.680;5.394;2023-03-21T04:10:08;101488.22;;;10.10;93.22
45523;BME280;31254;51.680;5.394;2023-03-21T04:12:37;101425.22;;;9.71;93.52
45523;BME280;31254;51.680;5.394;2023-03-21T04:15:04;101486.00;;;10.04;93.46
45523;BME280;31254;51.680;5.394;2023-03-21T04:17:37;101480.16;;;10.09;93.62
45523;BME280;31254;51.680;5.394;2023-03-21T04:20:08;101480.16;;;10.09;93.69
45523;BME280;31254;51.680;5.394;2023-03-21T04:22:43;101419.75;;;9.71;93.37
45523;BME280;31254;51.680;5.394;2023-03-21T04:25:10;101479.31;;;10.08;93.19
45523;BME280;31254;51.680;5.394;2023-03-21T04:27:52;101409.00;;;9.69;93.13
45523;BME280;31254;51.680;5.394;2023-03-21T04:30:23;101474.72;;;10.09;93.28
45523;BME280;31254;51.680;5.394;2023-03-21T04:32:53;101436.56;;;9.76;93.30
45523;BME280;31254;51.680;5.394;2023-03-21T04:35:23;101459.44;;;9.96;93.55
45523;BME280;31254;51.680;5.394;2023-03-21T04:37:50;101412.31;;;9.73;93.40
45523;BME280;31254;51.680;5.394;2023-03-21T04:40:17;101404.41;;;9.70;93.22
45523;BME280;31254;51.680;5.394;2023-03-21T04:42:47;101466.66;;;10.07;93.88
45523;BME280;31254;51.680;5.394;2023-03-21T04:45:15;101461.97;;;10.09;93.36
45523;BME280;31254;51.680;5.394;2023-03-21T04:47:42;101387.47;;;9.66;93.17
45523;BME280;31254;51.680;5.394;2023-03-21T04:50:10;101454.78;;;10.08;93.65
45523;BME280;31254;51.680;5.394;2023-03-21T04:52:37;101454.06;;;10.06;93.30
45523;BME280;31254;51.680;5.394;2023-03-21T04:55:06;101448.84;;;10.03;93.28
45523;BME280;31254;51.680;5.394;2023-03-21T04:57:36;101421.13;;;9.98;93.62
45523;BME280;31254;51.680;5.394;2023-03-21T05:00:05;101375.72;;;9.66;92.95
45523;BME280;31254;51.680;5.394;2023-03-21T05:02:36;101442.13;;;10.07;93.24
45523;BME280;31254;51.680;5.394;2023-03-21T05:05:04;101369.78;;;9.61;93.37
45523;BME280;31254;51.680;5.394;2023-03-21T05:07:31;101426.84;;;9.95;93.53
45523;BME280;31254;51.680;5.394;2023-03-21T05:09:58;101389.78;;;9.71;93.46
45523;BME280;31254;51.680;5.394;2023-03-21T05:12:27;101344.31;;;9.50;93.50
45523;BME280;31254;51.680;5.394;2023-03-21T05:14:56;101424.13;;;9.95;93.14
45523;BME280;31254;51.680;5.394;2023-03-21T05:17:23;101363.72;;;9.57;93.47
45523;BME280;31254;51.680;5.394;2023-03-21T05:19:50;101360.34;;;9.65;92.68
45523;BME280;31254;51.680;5.394;2023-03-21T05:22:18;101433.44;;;10.13;93.26
45523;BME280;31254;51.680;5.394;2023-03-21T05:24:45;101442.00;;;10.09;93.04
45523;BME280;31254;51.680;5.394;2023-03-21T05:27:19;101434.41;;;10.12;93.03
45523;BME280;31254;51.680;5.394;2023-03-21T05:30:01;101445.06;;;10.15;93.00
45523;BME280;31254;51.680;5.394;2023-03-21T05:32:33;101407.50;;;9.98;92.82
45523;BME280;31254;51.680;5.394;2023-03-21T05:35:00;101379.03;;;9.91;92.26
45523;BME280;31254;51.680;5.394;2023-03-21T05:37:29;101426.91;;;10.25;91.72
45523;BME280;31254;51.680;5.394;2023-03-21T05:39:56;101439.72;;;10.14;92.57
45523;BME280;31254;51.680;5.394;2023-03-21T05:42:25;101410.97;;;10.00;92.14
45523;BME280;31254;51.680;5.394;2023-03-21T05:44:54;101383.25;;;9.95;91.85
45523;BME280;31254;51.680;5.394;2023-03-21T05:47:21;101375.72;;;9.87;91.87
45523;BME280;31254;51.680;5.394;2023-03-21T05:49:47;101427.44;;;10.19;92.19
45523;BME280;31254;51.680;5.394;2023-03-21T05:52:15;101428.88;;;10.23;92.17
45523;BME280;31254;51.680;5.394;2023-03-21T05:54:42;101428.75;;;10.25;91.67
45523;BME280;31254;51.680;5.394;2023-03-21T05:57:09;101434.47;;;10.22;91.70
45523;BME280;31254;51.680;5.394;2023-03-21T05:59:35;101366.94;;;9.83;91.87
45523;BME280;31254;51.680;5.394;2023-03-21T06:02:02;101375.47;;;9.90;91.78
45523;BME280;31254;51.680;5.394;2023-03-21T06:04:29;101434.66;;;10.20;91.79
45523;BME280;31254;51.680;5.394;2023-03-21T06:06:56;101428.31;;;10.20;91.97
45523;BME280;31254;51.680;5.394;2023-03-21T06:09:23;101371.00;;;9.89;92.10
45523;BME280;31254;51.680;5.394;2023-03-21T06:11:52;101356.56;;;9.77;92.27
45523;BME280;31254;51.680;5.394;2023-03-21T06:14:23;101357.44;;;9.78;91.78
45523;BME280;31254;51.680;5.394;2023-03-21T06:16:53;101429.78;;;10.24;91.85
45523;BME280;31254;51.680;5.394;2023-03-21T06:19:26;101370.13;;;9.88;91.49
45523;BME280;31254;51.680;5.394;2023-03-21T06:21:53;101423.44;;;10.23;91.86
45523;BME280;31254;51.680;5.394;2023-03-21T06:24:20;101398.97;;;10.12;91.42
45523;BME280;31254;51.680;5.394;2023-03-21T06:26:47;101364.94;;;9.85;91.36
45523;BME280;31254;51.680;5.394;2023-03-21T06:29:14;101378.13;;;10.01;91.02
45523;BME280;31254;51.680;5.394;2023-03-21T06:31:43;101365.53;;;9.89;91.19
45523;BME280;31254;51.680;5.394;2023-03-21T06:34:10;101445.09;;;10.36;91.01
45523;BME280;31254;51.680;5.394;2023-03-21T06:36:37;101376.50;;;9.99;91.03
45523;BME280;31254;51.680;5.394;2023-03-21T06:39:04;101356.84;;;9.95;90.94
45523;BME280;31254;51.680;5.394;2023-03-21T06:41:32;101405.03;;;10.16;90.88
45523;BME280;31254;51.680;5.394;2023-03-21T06:43:59;101371.06;;;9.99;91.26
45523;BME280;31254;51.680;5.394;2023-03-21T06:46:26;101247.66;;;9.24;91.23
45523;BME280;31254;51.680;5.394;2023-03-21T06:48:53;101391.28;;;10.17;91.17
45523;BME280;31254;51.680;5.394;2023-03-21T06:51:19;101436.97;;;10.46;90.93
45523;BME280;31254;51.680;5.394;2023-03-21T06:53:46;101370.00;;;10.11;90.65
45523;BME280;31254;51.680;5.394;2023-03-21T06:56:13;101368.53;;;10.07;90.84
45523;BME280;31254;51.680;5.394;2023-03-21T06:58:40;101379.63;;;10.15;90.60
45523;BME280;31254;51.680;5.394;2023-03-21T07:01:09;101371.31;;;10.17;91.01
45523;BME280;31254;51.680;5.394;2023-03-21T07:03:40;101396.16;;;10.23;90.64
45523;BME280;31254;51.680;5.394;2023-03-21T07:06:09;101372.47;;;10.14;90.66
45523;BME280;31254;51.680;5.394;2023-03-21T07:08:39;101444.03;;;10.49;91.07
45523;BME280;31254;51.680;5.394;2023-03-21T07:11:08;101440.56;;;10.47;90.98
45523;BME280;31254;51.680;5.394;2023-03-21T07:13:35;101463.75;;;10.62;90.75
45523;BME280;31254;51.680;5.394;2023-03-21T07:16:02;101390.13;;;10.20;90.74
45523;BME280;31254;51.680;5.394;2023-03-21T07:18:29;101390.81;;;10.33;91.43
45523;BME280;31254;51.680;5.394;2023-03-21T07:20:56;101469.00;;;10.75;91.21
45523;BME280;31254;51.680;5.394;2023-03-21T07:23:25;101466.25;;;10.75;91.00
45523;BME280;31254;51.680;5.394;2023-03-21T07:25:52;101418.63;;;10.48;90.88
45523;BME280;31254;51.680;5.394;2023-03-21T07:28:21;101385.44;;;10.32;90.52
45523;BME280;31254;51.680;5.394;2023-03-21T07:30:57;101458.09;;;10.75;90.76
45523;BME280;31254;51.680;5.394;2023-03-21T07:33:25;101455.94;;;10.78;90.53
45523;BME280;31254;51.680;5.394;2023-03-21T07:35:57;101415.63;;;10.51;90.77
45523;BME280;31254;51.680;5.394;2023-03-21T07:38:25;101464.75;;;10.82;90.56
45523;BME280;31254;51.680;5.394;2023-03-21T07:40:52;101429.19;;;10.63;90.71
45523;BME280;31254;51.680;5.394;2023-03-21T07:43:19;101388.28;;;10.41;90.64
45523;BME280;31254;51.680;5.394;2023-03-21T07:45:48;101445.78;;;10.81;90.90
45523;BME280;31254;51.680;5.394;2023-03-21T07:48:15;101377.84;;;10.47;91.16
45523;BME280;31254;51.680;5.394;2023-03-21T07:50:43;101434.72;;;10.82;90.86
45523;BME280;31254;51.680;5.394;2023-03-21T07:53:15;101450.78;;;10.85;91.33
45523;BME280;31254;51.680;5.394;2023-03-21T07:55:44;101437.00;;;10.87;91.37
45523;BME280;31254;51.680;5.394;2023-03-21T07:58:14;101438.66;;;10.99;92.41
45523;BME280;31254;51.680;5.394;2023-03-21T08:00:41;101379.00;;;10.94;91.66
45523;BME280;31254;51.680;5.394;2023-03-21T08:03:08;101435.13;;;11.18;91.79
45523;BME280;31254;51.680;5.394;2023-03-21T08:05:38;101379.81;;;10.85;91.41
45523;BME280;31254;51.680;5.394;2023-03-21T08:08:06;101429.94;;;11.15;91.78
45523;BME280;31254;51.680;5.394;2023-03-21T08:10:34;101423.47;;;11.16;91.29
45523;BME280;31254;51.680;5.394;2023-03-21T08:13:02;101395.25;;;10.96;91.38
45523;BME280;31254;51.680;5.394;2023-03-21T08:15:29;101425.31;;;11.15;91.57
45523;BME280;31254;51.680;5.394;2023-03-21T08:17:57;101394.81;;;11.01;91.25
45523;BME280;31254;51.680;5.394;2023-03-21T08:20:26;101359.31;;;10.91;91.97
45523;BME280;31254;51.680;5.394;2023-03-21T08:22:56;101400.34;;;11.20;91.75
45523;BME280;31254;51.680;5.394;2023-03-21T08:25:23;101346.78;;;10.88;91.73
45523;BME280;31254;51.680;5.394;2023-03-21T08:27:50;101409.53;;;11.29;91.45
45523;BME280;31254;51.680;5.394;2023-03-21T08:30:22;101403.78;;;11.32;91.33
45523;BME280;31254;51.680;5.394;2023-03-21T08:32:49;101405.53;;;11.33;91.07
45523;BME280;31254;51.680;5.394;2023-03-21T08:35:17;101404.97;;;11.39;91.16
45523;BME280;31254;51.680;5.394;2023-03-21T08:37:44;101397.34;;;11.33;91.07
45523;BME280;31254;51.680;5.394;2023-03-21T08:40:14;101396.78;;;11.39;90.82
45523;BME280;31254;51.680;5.394;2023-03-21T08:42:42;101381.81;;;11.43;90.79
45523;BME280;31254;51.680;5.394;2023-03-21T08:45:11;101396.66;;;11.50;90.72
45523;BME280;31254;51.680;5.394;2023-03-21T08:47:39;101387.41;;;11.51;90.48
45523;BME280;31254;51.680;5.394;2023-03-21T08:50:08;101382.84;;;11.52;90.77
45523;BME280;31254;51.680;5.394;2023-03-21T08:52:39;101331.06;;;11.21;90.66
45523;BME280;31254;51.680;5.394;2023-03-21T08:55:06;101323.72;;;11.22;90.46
45523;BME280;31254;51.680;5.394;2023-03-21T08:57:33;101373.47;;;11.45;90.66
45523;BME280;31254;51.680;5.394;2023-03-21T09:00:00;101369.91;;;11.54;90.61
45523;BME280;31254;51.680;5.394;2023-03-21T09:02:27;101364.72;;;11.51;90.64
45523;BME280;31254;51.680;5.394;2023-03-21T09:04:56;101324.00;;;11.28;90.32
45523;BME280;31254;51.680;5.394;2023-03-21T09:07:24;101306.91;;;11.26;90.35
45523;BME280;31254;51.680;5.394;2023-03-21T09:09:51;101317.56;;;11.39;89.86
45523;BME280;31254;51.680;5.394;2023-03-21T09:12:39;101371.63;;;11.75;89.80
45523;BME280;31254;51.680;5.394;2023-03-21T09:15:08;101372.03;;;11.80;89.64
45523;BME280;31254;51.680;5.394;2023-03-21T09:17:34;101313.66;;;11.51;89.20
45523;BME280;31254;51.680;5.394;2023-03-21T09:20:02;101360.97;;;11.91;89.06
45523;BME280;31254;51.680;5.394;2023-03-21T09:22:37;101332.06;;;11.69;88.97
45523;BME280;31254;51.680;5.394;2023-03-21T09:25:07;101318.25;;;11.70;89.01
45523;BME280;31254;51.680;5.394;2023-03-21T09:27:36;101369.00;;;12.12;88.43
45523;BME280;31254;51.680;5.394;2023-03-21T09:30:04;101303.84;;;11.88;87.76
45523;BME280;31254;51.680;5.394;2023-03-21T09:32:33;101346.81;;;12.25;87.40
45523;BME280;31254;51.680;5.394;2023-03-21T09:34:59;101306.09;;;12.12;86.89
45523;BME280;31254;51.680;5.394;2023-03-21T09:37:31;101360.53;;;12.53;86.92
45523;BME280;31254;51.680;5.394;2023-03-21T09:39:58;101354.84;;;12.64;86.56
45523;BME280;31254;51.680;5.394;2023-03-21T09:42:42;101294.94;;;12.33;86.10
45523;BME280;31254;51.680;5.394;2023-03-21T09:45:20;101346.19;;;12.69;86.26
45523;BME280;31254;51.680;5.394;2023-03-21T09:47:53;101302.25;;;12.42;85.95
45523;BME280;31254;51.680;5.394;2023-03-21T09:53:09;101331.03;;;12.74;85.70
45523;BME280;31254;51.680;5.394;2023-03-21T09:55:39;101300.88;;;12.56;85.69
45523;BME280;31254;51.680;5.394;2023-03-21T09:58:25;101334.00;;;12.81;85.73
45523;BME280;31254;51.680;5.394;2023-03-21T10:00:59;101330.13;;;12.56;86.48
45523;BME280;31254;51.680;5.394;2023-03-21T10:03:33;101259.75;;;12.11;86.88
45523;BME280;31254;51.680;5.394;2023-03-21T10:06:10;101343.41;;;12.51;87.13
45523;BME280;31254;51.680;5.394;2023-03-21T10:08:40;101308.38;;;12.54;86.31
45523;BME280;31254;51.680;5.394;2023-03-21T10:11:18;101305.75;;;12.62;86.43
45523;BME280;31254;51.680;5.394;2023-03-21T10:13:56;101313.84;;;12.82;85.78
45523;BME280;31254;51.680;5.394;2023-03-21T10:16:31;101265.00;;;12.59;85.33
45523;BME280;31254;51.680;5.394;2023-03-21T10:19:10;101261.25;;;12.60;85.24
45523;BME280;31254;51.680;5.394;2023-03-21T10:21:44;101259.59;;;12.68;85.27
45523;BME280;31254;51.680;5.394;2023-03-21T10:24:32;101252.97;;;12.70;85.14
45523;BME280;31254;51.680;5.394;2023-03-21T10:27:00;101318.28;;;13.11;84.94
45523;BME280;31254;51.680;5.394;2023-03-21T10:29:46;101252.03;;;12.79;85.04
45523;BME280;31254;51.680;5.394;2023-03-21T10:32:16;101300.19;;;13.18;84.41
45523;BME280;31254;51.680;5.394;2023-03-21T10:34:47;101316.50;;;13.38;84.22
45523;BME280;31254;51.680;5.394;2023-03-21T10:37:14;101252.38;;;13.12;83.61
45523;BME280;31254;51.680;5.394;2023-03-21T10:39:44;101247.97;;;13.20;83.43
45523;BME280;31254;51.680;5.394;2023-03-21T10:42:22;101299.19;;;13.55;83.05
45523;BME280;31254;51.680;5.394;2023-03-21T10:44:54;101310.38;;;13.62;83.13
45523;BME280;31254;51.680;5.394;2023-03-21T10:47:26;101305.94;;;13.61;83.02
45523;BME280;31254;51.680;5.394;2023-03-21T10:49:54;101306.25;;;13.58;82.90
45523;BME280;31254;51.680;5.394;2023-03-21T10:52:34;101243.53;;;13.19;82.40
45523;BME280;31254;51.680;5.394;2023-03-21T10:55:25;101311.72;;;13.58;83.28
45523;BME280;31254;51.680;5.394;2023-03-21T10:57:58;101315.25;;;13.50;82.99
45523;BME280;31254;51.680;5.394;2023-03-21T11:00:33;101316.41;;;13.47;83.31
45523;BME280;31254;51.680;5.394;2023-03-21T11:03:01;101316.63;;;13.54;83.08
45523;BME280;31254;51.680;5.394;2023-03-21T11:05:37;101314.84;;;13.63;82.59
45523;BME280;31254;51.680;5.394;2023-03-21T11:08:10;101306.38;;;13.74;81.77
45523;BME280;31254;51.680;5.394;2023-03-21T11:13:24;101288.44;;;14.06;80.46
45523;BME280;31254;51.680;5.394;2023-03-21T11:15:56;101295.34;;;14.18;80.50
45523;BME280;31254;51.680;5.394;2023-03-21T11:18:25;101301.53;;;14.20;80.08
45523;BME280;31254;51.680;5.394;2023-03-21T11:21:01;101270.44;;;14.12;80.22
45523;BME280;31254;51.680;5.394;2023-03-21T11:23:31;101273.06;;;14.21;80.18
45523;BME280;31254;51.680;5.394;2023-03-21T11:26:00;101287.00;;;14.28;79.90
45523;BME280;31254;51.680;5.394;2023-03-21T11:28:40;101232.75;;;13.87;80.10
45523;BME280;31254;51.680;5.394;2023-03-21T11:31:07;101297.13;;;14.27;79.78
45523;BME280;31254;51.680;5.394;2023-03-21T11:33:54;101208.41;;;13.84;79.69
45523;BME280;31254;51.680;5.394;2023-03-21T11:38:56;101283.09;;;14.39;79.25
45523;BME280;31254;51.680;5.394;2023-03-21T11:41:31;101292.06;;;14.49;78.78
45523;BME280;31254;51.680;5.394;2023-03-21T11:44:00;101288.66;;;14.55;78.41
45523;BME280;31254;51.680;5.394;2023-03-21T11:46:29;101279.47;;;14.65;78.19
45523;BME280;31254;51.680;5.394;2023-03-21T11:48:59;101280.34;;;14.73;77.63
45523;BME280;31254;51.680;5.394;2023-03-21T11:54:24;101226.69;;;14.53;77.36
45523;BME280;31254;51.680;5.394;2023-03-21T11:57:02;101282.44;;;14.88;76.61
45523;BME280;31254;51.680;5.394;2023-03-21T12:05:28;101268.69;;;14.79;76.99
45523;BME280;31254;51.680;5.394;2023-03-21T12:13:11;101261.28;;;14.72;75.26
45523;BME280;31254;51.680;5.394;2023-03-21T12:18:38;101257.56;;;14.81;75.21
45523;BME280;31254;51.680;5.394;2023-03-21T12:21:29;101244.66;;;14.81;72.98
45523;BME280;31254;51.680;5.394;2023-03-21T12:36:49;101198.31;;;14.87;73.06
45523;BME280;31254;51.680;5.394;2023-03-21T12:44:36;101157.06;;;14.54;72.26
45523;BME280;31254;51.680;5.394;2023-03-21T12:47:08;101230.13;;;14.97;72.87
45523;BME280;31254;51.680;5.394;2023-03-21T12:52:15;101219.78;;;14.91;73.12
45523;BME280;31254;51.680;5.394;2023-03-21T13:03:22;101218.78;;;14.84;73.35
45523;BME280;31254;51.680;5.394;2023-03-21T13:06:05;101206.06;;;14.83;72.95
45523;BME280;31254;51.680;5.394;2023-03-21T13:08:37;101215.03;;;15.02;72.23
45523;BME280;31254;51.680;5.394;2023-03-21T13:11:14;101206.94;;;15.25;71.46
45523;BME280;31254;51.680;5.394;2023-03-21T13:16:38;101209.13;;;15.70;68.01
45523;BME280;31254;51.680;5.394;2023-03-21T13:21:48;101075.84;;;15.42;67.44
45523;BME280;31254;51.680;5.394;2023-03-21T13:24:59;101189.38;;;16.23;67.09
45523;BME280;31254;51.680;5.394;2023-03-21T13:27:17;101165.38;;;16.08;66.83
45523;BME280;31254;51.680;5.394;2023-03-21T13:30:31;101196.56;;;16.32;66.31
45523;BME280;31254;51.680;5.394;2023-03-21T13:32:43;101183.25;;;16.44;66.23
45523;BME280;31254;51.680;5.394;2023-03-21T13:37:48;101127.13;;;15.82;66.86
45523;BME280;31254;51.680;5.394;2023-03-21T13:40:37;101172.59;;;16.09;65.00
45523;BME280;31254;51.680;5.394;2023-03-21T13:46:14;101176.00;;;16.12;65.90
45523;BME280;31254;51.680;5.394;2023-03-21T13:49:44;101160.34;;;16.20;66.29
45523;BME280;31254;51.680;5.394;2023-03-21T13:52:33;101106.84;;;15.75;63.37
45523;BME280;31254;51.680;5.394;2023-03-21T13:55:02;101161.19;;;16.21;64.18
45523;BME280;31254;51.680;5.394;2023-03-21T14:00:19;101138.13;;;16.22;64.70
45523;BME280;31254;51.680;5.394;2023-03-21T14:03:08;101154.56;;;16.38;64.62
45523;BME280;31254;51.680;5.394;2023-03-21T14:05:35;101091.31;;;15.90;63.88
45523;BME280;31254;51.680;5.394;2023-03-21T14:08:07;101147.03;;;16.32;64.14
45523;BME280;31254;51.680;5.394;2023-03-21T14:10:46;101149.19;;;16.45;64.30
45523;BME280;31254;51.680;5.394;2023-03-21T14:13:18;101098.34;;;16.33;63.95
45523;BME280;31254;51.680;5.394;2023-03-21T14:16:08;101143.13;;;16.50;64.79
45523;BME280;31254;51.680;5.394;2023-03-21T14:18:42;101144.41;;;16.39;65.05
45523;BME280;31254;51.680;5.394;2023-03-21T14:21:27;101135.03;;;16.25;64.78
45523;BME280;31254;51.680;5.394;2023-03-21T14:26:32;101145.31;;;16.31;63.81
45523;BME280;31254;51.680;5.394;2023-03-21T14:29:04;101097.09;;;16.35;63.33
45523;BME280;31254;51.680;5.394;2023-03-21T14:31:46;101068.84;;;16.41;63.18
45523;BME280;31254;51.680;5.394;2023-03-21T14:34:14;101130.72;;;16.77;63.25
45523;BME280;31254;51.680;5.394;2023-03-21T14:36:47;101095.25;;;16.59;63.16
45523;BME280;31254;51.680;5.394;2023-03-21T14:39:29;101130.25;;;16.73;63.38
45523;BME280;31254;51.680;5.394;2023-03-21T14:42:02;101127.41;;;16.58;63.84
45523;BME280;31254;51.680;5.394;2023-03-21T14:44:39;101120.19;;;16.57;63.92
45523;BME280;31254;51.680;5.394;2023-03-21T14:47:28;101121.06;;;16.58;64.04
45523;BME280;31254;51.680;5.394;2023-03-21T14:49:56;101118.97;;;16.60;63.60
45523;BME280;31254;51.680;5.394;2023-03-21T14:52:30;101121.72;;;16.60;64.00
45523;BME280;31254;51.680;5.394;2023-03-21T14:54:58;101132.97;;;16.50;64.01
45523;BME280;31254;51.680;5.394;2023-03-21T14:57:30;101128.75;;;16.39;64.53
45523;BME280;31254;51.680;5.394;2023-03-21T15:00:00;101077.03;;;15.95;64.46
45523;BME280;31254;51.680;5.394;2023-03-21T15:02:34;101127.00;;;16.15;65.35
45523;BME280;31254;51.680;5.394;2023-03-21T15:05:09;101128.94;;;15.98;65.81
45523;BME280;31254;51.680;5.394;2023-03-21T15:07:36;101127.69;;;15.78;66.09
45523;BME280;31254;51.680;5.394;2023-03-21T15:10:06;101126.28;;;15.73;66.26
45523;BME280;31254;51.680;5.394;2023-03-21T15:12:34;101134.91;;;15.62;66.61